Time;durP1;ratioP1;P1;durP2;ratioP2;P2;SDS_P1;SDS_P2;PMS_P1;PMS_P2;Temp;Humidity;BMP_temperature;BMP_pressure;BME280_temperature;BME280_humidity;BME280_pressure;Samples;Min_cycle;Max_cycle;Signal;HPM_P1;HPM_P2
2023/05/12 00:00:13;;;;;;;11.87;9.23;;;;;;;;;;5113322;28;20442;-72
2023/05/12 00:02:43;;;;;;;10.00;8.10;;;;;;;;;;5113661;28;20465;-72
2023/05/12 00:05:10;;;;;;;9.70;8.10;;;;;;;;;;5115007;28;20551;-72
2023/05/12 00:07:37;;;;;;;10.30;9.10;;;;;;;;;;5117186;28;20446;-72
2023/05/12 00:10:05;;;;;;;10.03;8.30;;;;;;;;;;5117352;28;20448;-72
2023/05/12 00:12:32;;;;;;;9.80;7.83;;;;;;;;;;5117359;28;20473;-72
2023/05/12 00:14:59;;;;;;;12.77;9.97;;;;;;;;;;5116973;28;20535;-72
2023/05/12 00:17:26;;;;;;;17.40;11.83;;;;;;;;;;5117408;28;20474;-72
2023/05/12 00:19:55;;;;;;;14.37;10.27;;;;;;;;;;5116964;28;21001;-72
2023/05/12 00:22:22;;;;;;;14.50;11.23;;;;;;;;;;5116973;28;20476;-72
2023/05/12 00:24:49;;;;;;;18.03;9.50;;;;;;;;;;5116894;28;20830;-72
2023/05/12 00:27:16;;;;;;;14.70;11.20;;;;;;;;;;5116875;28;20446;-72
2023/05/12 00:29:43;;;;;;;15.47;10.30;;;;;;;;;;5116968;28;20791;-72
2023/05/12 00:32:10;;;;;;;14.53;10.70;;;;;;;;;;5116906;28;20452;-72
2023/05/12 00:34:37;;;;;;;20.10;13.20;;;;;;;;;;5116519;28;20488;-72
2023/05/12 00:37:06;;;;;;;15.70;12.30;;;;;;;;;;5116679;28;20456;-72
2023/05/12 00:39:33;;;;;;;16.23;11.33;;;;;;;;;;5116662;28;20821;-72
2023/05/12 00:42:00;;;;;;;15.33;10.07;;;;;;;;;;5116875;28;20438;-72
2023/05/12 00:44:27;;;;;;;13.40;10.43;;;;;;;;;;5116382;28;20456;-72
2023/05/12 00:46:55;;;;;;;14.20;10.43;;;;;;;;;;5116774;28;20812;-71
2023/05/12 00:49:22;;;;;;;13.80;10.00;;;;;;;;;;5116589;28;20461;-71
2023/05/12 00:51:49;;;;;;;13.63;10.03;;;;;;;;;;5116457;28;20458;-72
2023/05/12 00:54:18;;;;;;;15.13;10.80;;;;;;;;;;5116062;28;20489;-72
2023/05/12 00:56:45;;;;;;;15.93;11.83;;;;;;;;;;5116505;28;20450;-72
2023/05/12 00:59:12;;;;;;;13.93;10.43;;;;;;;;;;5116372;28;20472;-72
2023/05/12 01:01:39;;;;;;;18.87;13.27;;;;;;;;;;5116477;28;20456;-72
2023/05/12 01:04:06;;;;;;;20.53;13.20;;;;;;;;;;5115980;28;20488;-72
2023/05/12 01:06:37;;;;;;;19.23;12.00;;;;;;;;;;5116035;28;20491;-72
2023/05/12 01:09:04;;;;;;;21.97;12.97;;;;;;;;;;5116191;28;20452;-72
2023/05/12 01:11:33;;;;;;;23.70;13.10;;;;;;;;;;5115905;28;20465;-72
2023/05/12 01:14:00;;;;;;;20.90;13.70;;;;;;;;;;5115635;28;20490;-72
2023/05/12 01:16:31;;;;;;;20.70;13.10;;;;;;;;;;5114944;28;20449;-72
2023/05/12 01:18:59;;;;;;;21.50;14.03;;;;;;;;;;5115986;28;20450;-72
2023/05/12 01:21:26;;;;;;;21.07;12.70;;;;;;;;;;5115688;28;20811;-72
2023/05/12 01:23:57;;;;;;;21.37;13.60;;;;;;;;;;5115988;28;20914;-72
2023/05/12 01:26:25;;;;;;;21.80;13.30;;;;;;;;;;5115703;28;20450;-72
2023/05/12 01:28:53;;;;;;;19.23;12.57;;;;;;;;;;5115849;28;20442;-72
2023/05/12 01:31:20;;;;;;;20.10;13.33;;;;;;;;;;5115629;28;20446;-72
2023/05/12 01:33:48;;;;;;;25.17;13.83;;;;;;;;;;5115586;28;20986;-72
2023/05/12 01:36:15;;;;;;;21.03;15.17;;;;;;;;;;5116036;28;20491;-72
2023/05/12 01:38:42;;;;;;;19.90;13.50;;;;;;;;;;5115731;28;20884;-72
2023/05/12 01:41:09;;;;;;;18.73;12.40;;;;;;;;;;5115774;28;20473;-72
2023/05/12 01:43:38;;;;;;;24.67;13.87;;;;;;;;;;5115146;28;20986;-72
2023/05/12 01:46:05;;;;;;;23.23;14.57;;;;;;;;;;5115525;28;20449;-72
2023/05/12 01:48:32;;;;;;;24.27;14.70;;;;;;;;;;5115418;28;20450;-72
2023/05/12 01:51:00;;;;;;;20.97;13.63;;;;;;;;;;5115310;28;20453;-72
2023/05/12 01:53:27;;;;;;;24.77;14.60;;;;;;;;;;5114838;28;20482;-72
2023/05/12 01:55:54;;;;;;;22.90;15.30;;;;;;;;;;5115384;28;20446;-72
2023/05/12 01:58:21;;;;;;;19.63;14.23;;;;;;;;;;5115088;28;20457;-72
2023/05/12 02:00:50;;;;;;;20.43;14.70;;;;;;;;;;5115112;28;20450;-72
2023/05/12 02:03:18;;;;;;;22.60;14.57;;;;;;;;;;5114948;28;20481;-72
2023/05/12 02:05:45;;;;;;;24.17;14.63;;;;;;;;;;5114912;28;20461;-72
2023/05/12 02:08:12;;;;;;;21.00;15.10;;;;;;;;;;5115138;28;20942;-72
2023/05/12 02:10:39;;;;;;;27.20;16.67;;;;;;;;;;5115014;28;20450;-72
2023/05/12 02:13:06;;;;;;;25.90;15.67;;;;;;;;;;5114760;28;20476;-72
2023/05/12 02:15:33;;;;;;;23.77;16.67;;;;;;;;;;5114681;28;20457;-72
2023/05/12 02:18:03;;;;;;;21.90;15.00;;;;;;;;;;5114733;28;20453;-72
2023/05/12 02:20:30;;;;;;;30.97;17.73;;;;;;;;;;5114660;28;20449;-72
2023/05/12 02:22:58;;;;;;;23.67;15.90;;;;;;;;;;5114899;28;20986;-72
2023/05/12 02:25:25;;;;;;;19.90;14.27;;;;;;;;;;5114474;28;20437;-72
2023/05/12 02:27:53;;;;;;;25.43;16.80;;;;;;;;;;5114626;28;20446;-72
2023/05/12 02:30:20;;;;;;;22.50;15.87;;;;;;;;;;5114543;28;20449;-72
2023/05/12 02:32:47;;;;;;;22.23;16.43;;;;;;;;;;5114462;28;20970;-72
2023/05/12 02:35:15;;;;;;;32.97;20.33;;;;;;;;;;5114255;28;20512;-72
2023/05/12 02:37:42;;;;;;;25.47;17.20;;;;;;;;;;5114350;28;20460;-72
2023/05/12 02:40:10;;;;;;;27.90;16.83;;;;;;;;;;5114453;28;20453;-72
2023/05/12 02:42:38;;;;;;;23.63;16.93;;;;;;;;;;5114135;28;20473;-72
2023/05/12 02:45:05;;;;;;;26.97;18.70;;;;;;;;;;5114107;28;20511;-72
2023/05/12 02:47:32;;;;;;;27.60;17.00;;;;;;;;;;5114160;28;20476;-72
2023/05/12 02:49:59;;;;;;;27.60;18.20;;;;;;;;;;5114322;28;20454;-72
2023/05/12 02:52:28;;;;;;;26.73;17.40;;;;;;;;;;5114020;28;20465;-72
2023/05/12 02:54:56;;;;;;;26.23;18.30;;;;;;;;;;5113893;28;20477;-72
2023/05/12 02:57:25;;;;;;;30.03;17.17;;;;;;;;;;5114095;28;20449;-72
2023/05/12 02:59:52;;;;;;;34.27;19.33;;;;;;;;;;5114223;28;20450;-72
2023/05/12 03:02:19;;;;;;;27.40;18.60;;;;;;;;;;5113913;28;20457;-72
2023/05/12 03:04:46;;;;;;;30.00;19.10;;;;;;;;;;5113662;28;20450;-72
2023/05/12 03:07:13;;;;;;;26.43;17.03;;;;;;;;;;5113984;28;20453;-72
2023/05/12 03:09:42;;;;;;;27.17;18.67;;;;;;;;;;5113930;28;20453;-72
2023/05/12 03:12:09;;;;;;;27.27;16.57;;;;;;;;;;5113757;28;20450;-72
2023/05/12 03:14:36;;;;;;;27.20;16.93;;;;;;;;;;5113472;28;20491;-72
2023/05/12 03:17:03;;;;;;;28.37;17.70;;;;;;;;;;5113844;28;20449;-72
2023/05/12 03:19:30;;;;;;;30.27;18.50;;;;;;;;;;5113378;28;20822;-72
2023/05/12 03:21:57;;;;;;;29.23;19.07;;;;;;;;;;5113764;28;20450;-72
2023/05/12 03:24:25;;;;;;;29.13;19.10;;;;;;;;;;5113201;28;20461;-72
2023/05/12 03:26:53;;;;;;;28.93;19.03;;;;;;;;;;5113546;28;20454;-72
2023/05/12 03:29:20;;;;;;;31.27;18.20;;;;;;;;;;5113587;28;20946;-72
2023/05/12 03:31:48;;;;;;;26.37;16.63;;;;;;;;;;5113814;28;20457;-72
2023/05/12 03:34:15;;;;;;;27.20;18.40;;;;;;;;;;5113192;28;20489;-72
2023/05/12 03:36:42;;;;;;;29.80;18.80;;;;;;;;;;5113421;28;20446;-72
2023/05/12 03:39:09;;;;;;;31.23;20.07;;;;;;;;;;5112930;28;20448;-72
2023/05/12 03:41:37;;;;;;;30.00;19.57;;;;;;;;;;5113600;28;20442;-72
2023/05/12 03:44:07;;;;;;;30.13;20.20;;;;;;;;;;5113166;28;20580;-72
2023/05/12 03:46:34;;;;;;;30.10;18.80;;;;;;;;;;5113520;28;20544;-72
2023/05/12 03:49:02;;;;;;;28.67;17.17;;;;;;;;;;5113432;28;20942;-73
2023/05/12 03:51:29;;;;;;;31.70;17.50;;;;;;;;;;5113212;28;20460;-72
2023/05/12 03:53:56;;;;;;;32.13;18.80;;;;;;;;;;5113188;28;20473;-72
2023/05/12 03:56:23;;;;;;;26.90;16.73;;;;;;;;;;5113216;28;20454;-72
2023/05/12 03:58:50;;;;;;;28.87;16.10;;;;;;;;;;5113380;28;20445;-72
2023/05/12 04:01:19;;;;;;;25.53;15.27;;;;;;;;;;5113625;28;20938;-72
2023/05/12 04:03:46;;;;;;;31.57;16.93;;;;;;;;;;5112989;28;20469;-72
2023/05/12 04:06:13;;;;;;;24.00;16.20;;;;;;;;;;5113241;28;20502;-72
2023/05/12 04:08:40;;;;;;;24.70;15.80;;;;;;;;;;5113252;28;20453;-72
2023/05/12 04:11:08;;;;;;;22.40;14.73;;;;;;;;;;5113166;28;20449;-72
2023/05/12 04:13:35;;;;;;;21.60;15.07;;;;;;;;;;5112849;28;21016;-72
2023/05/12 04:16:02;;;;;;;22.40;14.97;;;;;;;;;;5113097;28;20486;-72
2023/05/12 04:18:30;;;;;;;23.47;14.43;;;;;;;;;;5113118;28;20930;-72
2023/05/12 04:20:58;;;;;;;22.63;14.10;;;;;;;;;;5113016;28;20946;-72
2023/05/12 04:23:25;;;;;;;25.57;16.60;;;;;;;;;;5112932;28;20474;-72
2023/05/12 04:25:52;;;;;;;23.90;16.57;;;;;;;;;;5113044;28;20442;-72
2023/05/12 04:28:19;;;;;;;22.77;14.77;;;;;;;;;;5113135;28;20458;-72
2023/05/12 04:30:46;;;;;;;21.60;13.00;;;;;;;;;;5113075;28;20447;-72
2023/05/12 04:33:13;;;;;;;19.27;13.50;;;;;;;;;;5112908;28;20821;-72
2023/05/12 04:35:42;;;;;;;20.60;13.83;;;;;;;;;;5112524;28;20501;-72
2023/05/12 04:38:09;;;;;;;17.53;11.80;;;;;;;;;;5113020;28;20461;-72
2023/05/12 04:40:36;;;;;;;13.87;10.37;;;;;;;;;;5112942;28;20836;-72
2023/05/12 04:43:03;;;;;;;20.13;10.60;;;;;;;;;;5112913;28;20472;-72
2023/05/12 04:45:30;;;;;;;19.30;10.20;;;;;;;;;;5112730;28;21034;-72
2023/05/12 04:47:57;;;;;;;16.47;10.43;;;;;;;;;;5112918;28;20457;-72
2023/05/12 04:50:24;;;;;;;17.50;11.00;;;;;;;;;;5112787;28;20452;-72
2023/05/12 04:52:53;;;;;;;14.40;10.17;;;;;;;;;;5115622;28;20966;-72
2023/05/12 04:55:20;;;;;;;16.43;9.93;;;;;;;;;;5116353;28;20489;-71
2023/05/12 04:57:47;;;;;;;16.80;10.90;;;;;;;;;;5116551;28;20817;-72
2023/05/12 05:00:15;;;;;;;17.60;11.40;;;;;;;;;;5116263;28;20490;-72
2023/05/12 05:02:42;;;;;;;17.10;9.90;;;;;;;;;;5116121;28;20474;-72
2023/05/12 05:05:09;;;;;;;18.70;12.70;;;;;;;;;;5116447;28;20452;-72
2023/05/12 05:07:36;;;;;;;17.53;12.03;;;;;;;;;;5112930;28;20450;-72
2023/05/12 05:10:06;;;;;;;14.10;9.93;;;;;;;;;;5110988;28;20446;-72
2023/05/12 05:12:33;;;;;;;14.83;10.47;;;;;;;;;;5115760;28;20473;-72
2023/05/12 05:15:00;;;;;;;16.93;10.13;;;;;;;;;;5115828;28;20994;-72
2023/05/12 05:17:28;;;;;;;17.17;10.90;;;;;;;;;;5116110;28;21010;-72
2023/05/12 05:19:55;;;;;;;16.23;10.43;;;;;;;;;;5115385;28;20465;-72
2023/05/12 05:22:22;;;;;;;16.00;10.60;;;;;;;;;;5115749;28;20557;-72
2023/05/12 05:24:49;;;;;;;16.37;11.53;;;;;;;;;;5115879;28;20446;-72
2023/05/12 05:27:18;;;;;;;18.80;11.30;;;;;;;;;;5115751;28;20449;-72
2023/05/12 05:29:45;;;;;;;15.70;9.87;;;;;;;;;;5115769;28;20454;-72
2023/05/12 05:32:12;;;;;;;17.90;11.17;;;;;;;;;;5115735;27;20449;-72
2023/05/12 05:34:39;;;;;;;14.90;10.37;;;;;;;;;;5115847;28;20822;-72
2023/05/12 05:37:06;;;;;;;17.43;9.73;;;;;;;;;;5115688;27;20456;-72
2023/05/12 05:39:33;;;;;;;14.83;9.40;;;;;;;;;;5115251;28;20449;-72
2023/05/12 05:42:00;;;;;;;16.30;10.90;;;;;;;;;;5115674;28;20449;-72
2023/05/12 05:44:29;;;;;;;19.10;12.30;;;;;;;;;;5115265;28;20452;-72
2023/05/12 05:46:56;;;;;;;18.00;11.60;;;;;;;;;;5115394;28;20454;-72
2023/05/12 05:49:23;;;;;;;12.90;9.47;;;;;;;;;;5115381;28;20450;-72
2023/05/12 05:51:50;;;;;;;14.80;11.40;;;;;;;;;;5115276;28;20562;-72
2023/05/12 05:54:17;;;;;;;13.40;9.87;;;;;;;;;;5115138;28;20472;-72
2023/05/12 05:56:44;;;;;;;19.00;10.40;;;;;;;;;;5114923;27;20962;-72
2023/05/12 05:59:13;;;;;;;15.13;9.80;;;;;;;;;;5114954;28;20445;-72
2023/05/12 06:01:41;;;;;;;14.77;10.47;;;;;;;;;;5114884;28;20939;-72
2023/05/12 06:04:08;;;;;;;14.33;10.73;;;;;;;;;;5114741;28;20472;-71
2023/05/12 06:06:35;;;;;;;15.50;9.97;;;;;;;;;;5113277;28;20848;-72
2023/05/12 06:09:02;;;;;;;16.37;10.73;;;;;;;;;;5114866;28;20449;-72
2023/05/12 06:11:29;;;;;;;16.20;11.43;;;;;;;;;;5114600;28;20454;-72
2023/05/12 06:13:57;;;;;;;15.60;10.60;;;;;;;;;;5114594;28;20481;-72
2023/05/12 06:16:24;;;;;;;16.93;10.50;;;;;;;;;;5114573;28;20481;-72
2023/05/12 06:18:52;;;;;;;18.80;11.50;;;;;;;;;;5114804;28;20789;-72
2023/05/12 06:21:19;;;;;;;19.93;11.30;;;;;;;;;;5114635;28;20464;-72
2023/05/12 06:23:46;;;;;;;16.37;10.73;;;;;;;;;;5114391;28;20966;-72
2023/05/12 06:26:13;;;;;;;16.73;10.50;;;;;;;;;;5114555;28;20477;-72
2023/05/12 06:28:40;;;;;;;18.70;10.90;;;;;;;;;;5114406;28;20453;-72
2023/05/12 06:31:08;;;;;;;19.10;11.80;;;;;;;;;;5114551;28;20926;-72
2023/05/12 06:33:35;;;;;;;19.67;11.07;;;;;;;;;;5114083;28;20561;-72
2023/05/12 06:36:04;;;;;;;19.83;10.80;;;;;;;;;;5114435;28;20665;-72
2023/05/12 06:38:31;;;;;;;16.97;11.07;;;;;;;;;;5114049;28;20449;-72
2023/05/12 06:40:58;;;;;;;17.60;11.37;;;;;;;;;;5114378;28;20461;-72
2023/05/12 06:43:26;;;;;;;14.13;9.97;;;;;;;;;;5113955;28;20477;-72
2023/05/12 06:45:53;;;;;;;15.30;10.70;;;;;;;;;;5114229;28;20446;-72
2023/05/12 06:48:20;;;;;;;18.00;11.33;;;;;;;;;;5114002;28;20453;-72
2023/05/12 06:50:47;;;;;;;13.80;10.30;;;;;;;;;;5114145;28;20544;-72
2023/05/12 06:53:16;;;;;;;19.87;11.70;;;;;;;;;;5113667;28;20469;-72
2023/05/12 06:55:45;;;;;;;17.73;11.07;;;;;;;;;;5114372;28;20970;-72
2023/05/12 06:58:12;;;;;;;16.07;10.03;;;;;;;;;;5114091;28;20450;-72
2023/05/12 07:00:39;;;;;;;19.90;12.77;;;;;;;;;;5114091;28;20446;-72
2023/05/12 07:03:08;;;;;;;21.37;14.60;;;;;;;;;;5114140;28;20465;-72
2023/05/12 07:05:36;;;;;;;18.10;12.10;;;;;;;;;;5113841;28;20446;-72
2023/05/12 07:08:03;;;;;;;17.27;11.33;;;;;;;;;;5113999;28;20446;-72
2023/05/12 07:10:32;;;;;;;16.90;10.47;;;;;;;;;;5113976;28;20460;-72
2023/05/12 07:12:59;;;;;;;16.83;11.70;;;;;;;;;;5113904;28;20473;-73
2023/05/12 07:15:26;;;;;;;16.17;11.67;;;;;;;;;;5112814;28;20986;-72
2023/05/12 07:17:54;;;;;;;14.90;10.30;;;;;;;;;;5113850;28;20458;-72
2023/05/12 07:20:21;;;;;;;19.80;12.30;;;;;;;;;;5113534;28;20598;-73
2023/05/12 07:22:50;;;;;;;19.47;11.80;;;;;;;;;;5113919;28;20497;-73
2023/05/12 07:25:18;;;;;;;12.60;9.33;;;;;;;;;;5113477;28;20833;-72
2023/05/12 07:27:46;;;;;;;13.73;10.37;;;;;;;;;;5113760;28;20445;-73
2023/05/12 07:30:14;;;;;;;19.90;12.97;;;;;;;;;;5113606;27;20977;-73
2023/05/12 07:32:41;;;;;;;17.93;11.20;;;;;;;;;;5113538;28;20480;-73
2023/05/12 07:35:09;;;;;;;18.40;9.80;;;;;;;;;;5113341;28;20481;-72
2023/05/12 07:37:36;;;;;;;15.13;10.90;;;;;;;;;;5113431;28;20456;-72
2023/05/12 07:40:03;;;;;;;14.73;10.90;;;;;;;;;;5113610;28;20950;-72
2023/05/12 07:42:30;;;;;;;15.47;10.53;;;;;;;;;;5113297;28;20515;-72
2023/05/12 07:44:59;;;;;;;19.33;9.73;;;;;;;;;;5113038;28;20454;-72
2023/05/12 07:47:27;;;;;;;11.33;7.60;;;;;;;;;;5113577;28;20465;-72
2023/05/12 07:49:54;;;;;;;18.60;10.70;;;;;;;;;;5113375;28;20460;-72
2023/05/12 07:52:22;;;;;;;12.77;9.47;;;;;;;;;;5113342;28;20465;-72
2023/05/12 07:54:50;;;;;;;13.47;8.13;;;;;;;;;;5113312;28;20508;-72
2023/05/12 07:57:17;;;;;;;16.77;10.43;;;;;;;;;;5113443;28;20497;-72
2023/05/12 07:59:44;;;;;;;13.37;8.20;;;;;;;;;;5113387;28;20476;-73
2023/05/12 08:02:12;;;;;;;12.03;8.63;;;;;;;;;;5113224;28;20449;-73
2023/05/12 08:04:39;;;;;;;14.43;8.47;;;;;;;;;;5113235;28;20919;-72
2023/05/12 08:07:06;;;;;;;14.07;9.27;;;;;;;;;;5113450;28;20446;-72
2023/05/12 08:09:33;;;;;;;13.40;9.20;;;;;;;;;;5113158;28;20552;-72
2023/05/12 08:12:01;;;;;;;13.10;9.27;;;;;;;;;;5113242;28;20801;-72
2023/05/12 08:14:28;;;;;;;10.10;7.97;;;;;;;;;;5112729;28;20457;-73
2023/05/12 08:16:55;;;;;;;14.50;8.73;;;;;;;;;;5113080;28;20485;-73
2023/05/12 08:19:24;;;;;;;14.43;8.70;;;;;;;;;;5112942;28;20450;-73
2023/05/12 08:21:51;;;;;;;12.90;8.70;;;;;;;;;;5113199;28;20453;-73
2023/05/12 08:24:18;;;;;;;11.50;8.23;;;;;;;;;;5112795;28;20469;-73
2023/05/12 08:26:45;;;;;;;12.30;8.87;;;;;;;;;;5115909;28;20931;-72
2023/05/12 08:29:14;;;;;;;12.30;8.57;;;;;;;;;;5117082;28;20452;-72
2023/05/12 08:31:41;;;;;;;12.87;8.90;;;;;;;;;;5117495;28;20958;-73
2023/05/12 08:34:08;;;;;;;12.93;8.70;;;;;;;;;;5116793;28;20476;-73
2023/05/12 08:36:37;;;;;;;12.80;8.83;;;;;;;;;;5116902;28;20485;-73
2023/05/12 08:39:04;;;;;;;15.37;9.87;;;;;;;;;;5116962;28;20441;-73
2023/05/12 08:41:37;;;;;;;14.50;9.13;;;;;;;;;;5116678;28;20446;-73
2023/05/12 08:44:05;;;;;;;14.70;10.60;;;;;;;;;;5116397;28;20864;-73
2023/05/12 08:46:32;;;;;;;14.97;11.07;;;;;;;;;;5116577;28;20441;-73
2023/05/12 08:49:01;;;;;;;17.33;9.60;;;;;;;;;;5116689;28;20453;-73
2023/05/12 08:51:29;;;;;;;15.03;10.17;;;;;;;;;;5116447;28;20870;-72
2023/05/12 08:53:57;;;;;;;16.43;11.33;;;;;;;;;;5116295;28;20476;-72
2023/05/12 08:56:25;;;;;;;17.07;10.70;;;;;;;;;;5116339;28;20485;-72
2023/05/12 08:58:54;;;;;;;16.40;11.80;;;;;;;;;;5116569;28;20449;-72
2023/05/12 09:01:21;;;;;;;17.53;11.50;;;;;;;;;;5116365;28;20951;-72
2023/05/12 09:03:48;;;;;;;16.40;11.27;;;;;;;;;;5116115;27;20481;-72
2023/05/12 09:06:15;;;;;;;18.23;11.57;;;;;;;;;;5116231;27;20442;-72
2023/05/12 09:08:42;;;;;;;19.30;11.40;;;;;;;;;;5116192;28;20450;-72
2023/05/12 09:11:12;;;;;;;13.40;10.10;;;;;;;;;;5116218;28;20953;-72
2023/05/12 09:13:47;;;;;;;11.27;8.80;;;;;;;;;;5116060;28;20554;-72
2023/05/12 09:16:15;;;;;;;12.17;9.07;;;;;;;;;;5116035;28;20572;-72
2023/05/12 09:18:48;;;;;;;11.10;8.93;;;;;;;;;;5115864;28;20549;-72
2023/05/12 09:21:15;;;;;;;11.17;7.93;;;;;;;;;;5115864;28;20454;-72
2023/05/12 09:23:52;;;;;;;11.40;7.10;;;;;;;;;;5116018;28;20531;-72
2023/05/12 09:26:21;;;;;;;9.00;7.23;;;;;;;;;;5115941;28;20449;-72
2023/05/12 09:28:48;;;;;;;8.20;7.40;;;;;;;;;;5115802;28;20450;-72
2023/05/12 09:31:16;;;;;;;7.90;7.10;;;;;;;;;;5116238;28;20449;-72
2023/05/12 09:33:43;;;;;;;9.80;7.70;;;;;;;;;;5115572;28;20539;-73
2023/05/12 09:36:10;;;;;;;9.07;6.80;;;;;;;;;;5115742;28;20482;-72
2023/05/12 09:38:37;;;;;;;10.53;8.43;;;;;;;;;;5114776;27;20446;-74
2023/05/12 09:41:05;;;;;;;9.43;7.73;;;;;;;;;;5115631;28;20455;-75
2023/05/12 09:43:33;;;;;;;12.43;7.40;;;;;;;;;;5115401;28;20469;-75
2023/05/12 09:46:05;;;;;;;9.10;8.10;;;;;;;;;;5115466;28;20524;-75
2023/05/12 09:48:32;;;;;;;10.60;7.57;;;;;;;;;;5115439;28;20450;-75
2023/05/12 09:51:00;;;;;;;10.57;8.40;;;;;;;;;;5115424;27;20454;-73
2023/05/12 09:53:27;;;;;;;10.57;7.67;;;;;;;;;;5115325;27;20454;-73
2023/05/12 09:55:54;;;;;;;9.07;7.23;;;;;;;;;;5115233;28;20815;-73
2023/05/12 09:58:22;;;;;;;8.13;6.00;;;;;;;;;;5115111;28;20452;-73
2023/05/12 10:00:53;;;;;;;7.70;4.80;;;;;;;;;;5115234;28;20453;-73
2023/05/12 10:03:22;;;;;;;6.57;3.93;;;;;;;;;;5115016;28;20477;-73
2023/05/12 10:05:50;;;;;;;6.07;4.03;;;;;;;;;;5115039;28;20462;-73
2023/05/12 10:08:21;;;;;;;4.97;4.07;;;;;;;;;;5115039;28;20448;-73
2023/05/12 10:10:51;;;;;;;6.63;4.97;;;;;;;;;;5115337;28;20931;-73
2023/05/12 10:13:18;;;;;;;5.77;5.17;;;;;;;;;;5114859;27;20523;-74
2023/05/12 10:15:47;;;;;;;5.30;4.80;;;;;;;;;;5114643;28;20458;-74
2023/05/12 10:18:16;;;;;;;5.93;4.90;;;;;;;;;;5114961;28;20442;-74
2023/05/12 10:20:44;;;;;;;7.07;5.50;;;;;;;;;;5112059;28;20450;-74
2023/05/12 10:23:13;;;;;;;6.30;5.20;;;;;;;;;;5112959;28;20470;-74
2023/05/12 10:25:41;;;;;;;5.97;5.33;;;;;;;;;;5113248;28;20449;-74
2023/05/12 10:28:09;;;;;;;7.83;5.73;;;;;;;;;;5113398;28;20457;-74
2023/05/12 10:30:37;;;;;;;7.80;5.60;;;;;;;;;;5112649;28;20449;-74
2023/05/12 10:33:04;;;;;;;5.90;4.73;;;;;;;;;;5113180;28;20465;-73
2023/05/12 10:35:36;;;;;;;6.30;5.50;;;;;;;;;;5113169;28;20559;-74
2023/05/12 10:38:06;;;;;;;6.83;6.20;;;;;;;;;;5113172;28;21017;-73
2023/05/12 10:40:33;;;;;;;7.20;5.90;;;;;;;;;;5113320;28;20442;-73
2023/05/12 10:43:01;;;;;;;7.20;5.70;;;;;;;;;;5112866;28;20480;-74
2023/05/12 10:45:28;;;;;;;5.63;5.10;;;;;;;;;;5112781;28;20453;-73
2023/05/12 10:48:05;;;;;;;7.23;5.90;;;;;;;;;;5112956;28;20442;-74
2023/05/12 10:50:32;;;;;;;6.10;4.60;;;;;;;;;;5101027;28;20935;-73
2023/05/12 10:53:01;;;;;;;6.30;5.70;;;;;;;;;;5104151;28;20470;-73
2023/05/12 10:55:32;;;;;;;8.10;5.73;;;;;;;;;;5107882;28;20449;-73
2023/05/12 10:58:04;;;;;;;6.63;6.03;;;;;;;;;;5103162;28;20483;-73
2023/05/12 11:00:33;;;;;;;8.00;6.27;;;;;;;;;;5102358;28;20450;-73
2023/05/12 11:03:03;;;;;;;5.80;5.30;;;;;;;;;;5097727;28;20475;-73
2023/05/12 11:05:34;;;;;;;6.93;6.07;;;;;;;;;;5093298;28;20450;-73
2023/05/12 11:08:03;;;;;;;11.30;6.37;;;;;;;;;;5099207;28;20450;-74
2023/05/12 11:10:30;;;;;;;8.60;6.60;;;;;;;;;;5104795;28;20446;-74
2023/05/12 11:12:57;;;;;;;8.43;7.00;;;;;;;;;;5102314;28;20474;-73
2023/05/12 11:15:24;;;;;;;8.30;7.03;;;;;;;;;;5092481;28;20459;-73
2023/05/12 11:17:52;;;;;;;9.83;6.90;;;;;;;;;;5092778;28;20475;-73
2023/05/12 11:20:24;;;;;;;9.10;5.23;;;;;;;;;;5092961;28;20819;-73
2023/05/12 11:22:51;;;;;;;6.30;5.47;;;;;;;;;;5093267;28;20955;-73
2023/05/12 11:25:20;;;;;;;5.40;4.90;;;;;;;;;;5093516;28;20445;-73
2023/05/12 11:27:47;;;;;;;7.80;6.10;;;;;;;;;;5093643;28;20912;-73
2023/05/12 11:30:15;;;;;;;6.70;5.50;;;;;;;;;;5093275;28;20486;-72
2023/05/12 11:32:42;;;;;;;6.83;5.93;;;;;;;;;;5093085;28;20842;-73
2023/05/12 11:35:10;;;;;;;6.93;5.87;;;;;;;;;;5093071;28;20483;-73
2023/05/12 11:37:38;;;;;;;7.27;5.83;;;;;;;;;;5092902;28;20528;-73
2023/05/12 11:40:12;;;;;;;7.70;6.43;;;;;;;;;;5093178;28;20936;-73
2023/05/12 11:42:44;;;;;;;7.37;6.60;;;;;;;;;;5092966;28;20484;-73
2023/05/12 11:45:20;;;;;;;8.23;6.67;;;;;;;;;;5092804;28;20451;-73
2023/05/12 11:47:47;;;;;;;10.27;6.90;;;;;;;;;;5108432;28;20442;-73
2023/05/12 11:50:21;;;;;;;8.30;6.23;;;;;;;;;;5113381;28;20454;-73
2023/05/12 11:52:48;;;;;;;8.53;6.50;;;;;;;;;;5113407;28;20466;-73
2023/05/12 11:55:20;;;;;;;6.30;5.53;;;;;;;;;;5113098;28;20465;-73
2023/05/12 11:57:57;;;;;;;7.47;5.20;;;;;;;;;;5113259;28;20837;-73
2023/05/12 12:00:27;;;;;;;5.70;5.10;;;;;;;;;;5113932;28;20446;-73
2023/05/12 12:03:05;;;;;;;6.67;6.00;;;;;;;;;;5107800;28;20830;-73
2023/05/12 12:05:32;;;;;;;6.70;5.53;;;;;;;;;;5107222;28;20437;-73
2023/05/12 12:08:05;;;;;;;5.90;5.30;;;;;;;;;;5096984;28;20826;-73
2023/05/12 12:10:32;;;;;;;9.30;6.40;;;;;;;;;;5096842;28;20470;-73
2023/05/12 12:13:01;;;;;;;7.53;5.60;;;;;;;;;;5096575;28;20474;-72
2023/05/12 12:15:28;;;;;;;6.83;5.80;;;;;;;;;;5096167;28;20477;-72
2023/05/12 12:17:56;;;;;;;6.60;5.47;;;;;;;;;;5096724;28;20497;-72
2023/05/12 12:20:24;;;;;;;7.53;5.27;;;;;;;;;;5096489;28;20446;-73
2023/05/12 12:22:53;;;;;;;7.10;6.40;;;;;;;;;;5100271;28;20469;-73
2023/05/12 12:25:20;;;;;;;6.33;5.73;;;;;;;;;;5117051;28;20502;-72
2023/05/12 12:27:48;;;;;;;7.80;6.07;;;;;;;;;;5116788;28;20452;-73
2023/05/12 12:30:16;;;;;;;8.37;5.17;;;;;;;;;;5116901;28;20449;-73
2023/05/12 12:32:44;;;;;;;5.57;5.07;;;;;;;;;;5116894;28;20841;-73
2023/05/12 12:35:12;;;;;;;5.30;4.80;;;;;;;;;;5116783;28;20475;-73
2023/05/12 12:37:39;;;;;;;5.43;4.93;;;;;;;;;;5116812;28;20481;-72
2023/05/12 12:40:08;;;;;;;6.63;5.80;;;;;;;;;;5116793;28;20452;-72
2023/05/12 12:42:36;;;;;;;7.53;5.40;;;;;;;;;;5116571;28;20548;-73
2023/05/12 12:45:03;;;;;;;7.00;5.93;;;;;;;;;;5116662;28;20449;-73
2023/05/12 12:47:32;;;;;;;6.07;5.30;;;;;;;;;;5116527;28;20452;-73
2023/05/12 12:49:59;;;;;;;5.90;4.00;;;;;;;;;;5116709;28;20457;-72
2023/05/12 12:52:26;;;;;;;6.37;5.80;;;;;;;;;;5116401;27;20473;-73
2023/05/12 12:54:54;;;;;;;5.27;4.67;;;;;;;;;;5116426;28;20934;-73
2023/05/12 12:57:21;;;;;;;4.70;4.30;;;;;;;;;;5116237;27;20542;-73
2023/05/12 12:59:49;;;;;;;5.43;4.93;;;;;;;;;;5116501;28;20454;-73
2023/05/12 13:02:16;;;;;;;7.20;5.53;;;;;;;;;;5116313;28;20475;-72
2023/05/12 13:04:44;;;;;;;5.90;5.30;;;;;;;;;;5116396;28;20460;-72
2023/05/12 13:07:12;;;;;;;5.93;5.10;;;;;;;;;;5116400;28;20446;-72
2023/05/12 13:09:39;;;;;;;5.00;4.60;;;;;;;;;;5116532;28;20851;-73
2023/05/12 13:12:06;;;;;;;5.00;4.50;;;;;;;;;;5115130;27;20532;-73
2023/05/12 13:14:33;;;;;;;5.17;4.67;;;;;;;;;;5115821;28;20468;-73
2023/05/12 13:17:01;;;;;;;5.43;4.40;;;;;;;;;;5115674;28;20492;-73
2023/05/12 13:19:28;;;;;;;4.57;3.73;;;;;;;;;;5115567;28;20460;-73
2023/05/12 13:21:57;;;;;;;5.27;4.77;;;;;;;;;;5116164;28;20453;-73
2023/05/12 13:24:24;;;;;;;6.00;4.30;;;;;;;;;;5115608;28;20978;-73
2023/05/12 13:26:51;;;;;;;5.63;4.37;;;;;;;;;;5115820;28;20552;-73
2023/05/12 13:29:18;;;;;;;4.00;3.60;;;;;;;;;;5115540;28;20453;-73
2023/05/12 13:31:45;;;;;;;5.10;4.60;;;;;;;;;;5115732;28;20453;-73
2023/05/12 13:34:13;;;;;;;3.53;3.23;;;;;;;;;;5115592;28;20465;-73
2023/05/12 13:36:40;;;;;;;4.93;3.73;;;;;;;;;;5115751;28;20450;-73
2023/05/12 13:39:09;;;;;;;4.10;3.77;;;;;;;;;;5115734;28;20485;-73
2023/05/12 13:41:36;;;;;;;4.43;4.03;;;;;;;;;;5115505;28;20467;-73
2023/05/12 13:44:04;;;;;;;3.67;3.20;;;;;;;;;;5115296;28;20472;-73
2023/05/12 13:46:31;;;;;;;3.20;2.90;;;;;;;;;;5115484;28;20453;-73
2023/05/12 13:48:58;;;;;;;3.77;3.37;;;;;;;;;;5115451;28;20815;-73
2023/05/12 13:51:25;;;;;;;3.23;2.93;;;;;;;;;;5115217;28;20450;-72
2023/05/12 13:53:52;;;;;;;3.97;2.97;;;;;;;;;;5114804;28;20535;-73
2023/05/12 13:56:21;;;;;;;3.63;3.20;;;;;;;;;;5115516;28;20465;-73
2023/05/12 13:58:48;;;;;;;3.40;2.80;;;;;;;;;;5115204;28;20481;-73
2023/05/12 14:01:15;;;;;;;3.30;3.00;;;;;;;;;;5115270;28;20449;-73
2023/05/12 14:03:42;;;;;;;4.30;3.00;;;;;;;;;;5114947;28;20473;-72
2023/05/12 14:06:11;;;;;;;3.03;2.73;;;;;;;;;;5113174;28;20460;-73
2023/05/12 14:08:38;;;;;;;2.70;2.50;;;;;;;;;;5114000;28;20785;-73
2023/05/12 14:11:06;;;;;;;4.60;3.30;;;;;;;;;;5113644;28;20456;-73
2023/05/12 14:13:34;;;;;;;3.93;3.57;;;;;;;;;;5112691;28;20881;-73
2023/05/12 14:16:01;;;;;;;2.70;2.37;;;;;;;;;;5113610;28;20461;-73
2023/05/12 14:18:29;;;;;;;3.30;2.80;;;;;;;;;;5113241;28;21009;-73
2023/05/12 14:20:56;;;;;;;3.10;2.80;;;;;;;;;;5113359;28;20457;-73
2023/05/12 14:23:24;;;;;;;2.50;2.30;;;;;;;;;;5112581;28;20478;-73
2023/05/12 14:25:51;;;;;;;3.00;2.63;;;;;;;;;;5113135;28;20449;-72
2023/05/12 14:28:18;;;;;;;2.50;2.30;;;;;;;;;;5113228;28;20441;-73
2023/05/12 14:30:47;;;;;;;2.70;2.50;;;;;;;;;;5113199;28;20454;-73